Time;durP1;ratioP1;P1;durP2;ratioP2;P2;SDS_P1;SDS_P2;PMS_P1;PMS_P2;Temp;Humidity;BMP_temperature;BMP_pressure;BME280_temperature;BME280_humidity;BME280_pressure;Samples;Min_cycle;Max_cycle;Signal;HPM_P1;HPM_P2
2020/12/04 00:02:07;;;;;;;;;;;;;;;9.30;76.91;97276.41;4890122;29;19923;-73
2020/12/04 00:04:34;;;;;;;;;;;;;;;9.39;76.92;97291.34;4894663;29;19935;-69
2020/12/04 00:07:01;;;;;;;;;;;;;;;9.31;76.51;97297.22;4892424;29;19924;-74
2020/12/04 00:09:28;;;;;;;;;;;;;;;9.47;76.07;97284.69;4889927;29;20441;-71
2020/12/04 00:11:54;;;;;;;;;;;;;;;9.55;76.70;97299.25;4879061;29;20306;-73
2020/12/04 00:14:21;;;;;;;;;;;;;;;9.61;76.06;97298.47;4890644;29;20485;-72
2020/12/04 00:16:47;;;;;;;;;;;;;;;9.76;75.84;97291.03;4887329;29;19995;-72
2020/12/04 00:19:14;;;;;;;;;;;;;;;9.58;74.94;97301.19;4891230;29;19924;-71
2020/12/04 00:21:41;;;;;;;;;;;;;;;9.73;75.82;97300.84;4892981;29;19975;-72
2020/12/04 00:24:08;;;;;;;;;;;;;;;9.63;74.31;97301.59;4882657;29;19931;-72
2020/12/04 00:26:35;;;;;;;;;;;;;;;9.94;73.65;97292.59;4880331;29;19923;-73
2020/12/04 00:29:02;;;;;;;;;;;;;;;9.63;75.77;97279.63;4889446;29;19934;-72
2020/12/04 00:31:29;;;;;;;;;;;;;;;9.54;73.67;97287.47;4896262;29;19935;-69
2020/12/04 00:33:55;;;;;;;;;;;;;;;9.52;74.49;97298.03;4891780;29;19923;-68
2020/12/04 00:36:22;;;;;;;;;;;;;;;9.56;74.14;97284.31;4895047;29;19930;-67
2020/12/04 00:38:50;;;;;;;;;;;;;;;9.41;73.66;97297.25;4891231;29;20001;-67
2020/12/04 00:41:16;;;;;;;;;;;;;;;9.46;74.95;97296.06;4897553;29;20368;-69
2020/12/04 00:43:43;;;;;;;;;;;;;;;9.54;74.53;97298.44;4896893;29;19930;-67
2020/12/04 00:46:13;;;;;;;;;;;;;;;9.56;73.83;97289.81;4896622;29;20323;-69
2020/12/04 00:48:40;;;;;;;;;;;;;;;9.43;73.45;97294.13;4896053;29;20307;-68
2020/12/04 00:51:07;;;;;;;;;;;;;;;9.48;73.89;97299.22;4912258;29;19924;-69
2020/12/04 00:53:33;;;;;;;;;;;;;;;9.42;74.13;97298.81;4911834;29;19924;-68
2020/12/04 00:56:01;;;;;;;;;;;;;;;9.53;75.56;97293.34;4896391;29;19923;-68
2020/12/04 00:58:28;;;;;;;;;;;;;;;9.36;73.30;97292.13;4877629;29;19931;-74
2020/12/04 01:00:55;;;;;;;;;;;;;;;9.33;74.40;97298.38;4892864;29;19931;-73
2020/12/04 01:03:21;;;;;;;;;;;;;;;9.27;74.09;97305.44;4879105;29;20295;-73
2020/12/04 01:05:48;;;;;;;;;;;;;;;9.28;75.24;97300.72;4878813;29;19924;-74
2020/12/04 01:08:14;;;;;;;;;;;;;;;9.46;73.99;97296.88;4881399;29;19924;-75
2020/12/04 01:10:41;;;;;;;;;;;;;;;9.33;73.76;97325.09;4892564;29;20041;-74
2020/12/04 01:13:08;;;;;;;;;;;;;;;9.51;73.12;97312.16;4897451;29;19924;-74
2020/12/04 01:15:34;;;;;;;;;;;;;;;9.26;72.90;97323.09;4898411;29;19930;-73
2020/12/04 01:18:01;;;;;;;;;;;;;;;9.22;71.40;97318.75;4897618;29;20299;-73
2020/12/04 01:20:27;;;;;;;;;;;;;;;9.32;70.17;97334.47;4885780;29;19931;-75
2020/12/04 01:22:54;;;;;;;;;;;;;;;9.28;70.88;97330.94;4878640;29;20219;-74
2020/12/04 01:25:21;;;;;;;;;;;;;;;9.37;71.31;97347.84;4878920;29;19924;-73
2020/12/04 01:27:47;;;;;;;;;;;;;;;9.39;72.46;97340.00;4879185;29;19931;-73
2020/12/04 01:30:14;;;;;;;;;;;;;;;9.48;71.78;97351.41;4887972;29;19930;-74
2020/12/04 01:32:40;;;;;;;;;;;;;;;9.25;70.35;97362.72;4897573;29;19923;-74
2020/12/04 01:35:07;;;;;;;;;;;;;;;9.12;71.62;97366.19;4886306;29;19931;-74
2020/12/04 01:37:34;;;;;;;;;;;;;;;8.99;71.31;97366.53;4877445;29;19940;-74
2020/12/04 01:40:00;;;;;;;;;;;;;;;9.20;71.01;97356.78;4885763;29;20299;-72
2020/12/04 01:42:27;;;;;;;;;;;;;;;9.19;69.27;97368.97;4897625;29;20291;-74
2020/12/04 01:44:53;;;;;;;;;;;;;;;9.22;66.18;97370.94;4896216;29;20422;-73
2020/12/04 01:47:20;;;;;;;;;;;;;;;9.10;65.66;97367.34;4897004;29;19927;-75
2020/12/04 01:49:47;;;;;;;;;;;;;;;9.23;67.12;97383.47;4890422;29;19947;-74
2020/12/04 01:52:14;;;;;;;;;;;;;;;9.20;66.03;97389.75;4878181;29;20322;-73
2020/12/04 01:54:40;;;;;;;;;;;;;;;9.32;65.80;97383.91;4877491;29;19928;-75
2020/12/04 01:57:07;;;;;;;;;;;;;;;9.40;65.32;97371.78;4877432;29;20287;-71
2020/12/04 01:59:34;;;;;;;;;;;;;;;9.32;67.15;97381.97;4880927;29;20330;-72
2020/12/04 02:02:04;;;;;;;;;;;;;;;9.27;66.75;97376.06;4896693;29;20485;-72
2020/12/04 02:04:30;;;;;;;;;;;;;;;9.13;66.58;97372.06;4895361;29;19927;-71
2020/12/04 02:07:00;;;;;;;;;;;;;;;9.04;67.13;97379.06;4896300;29;19923;-70
2020/12/04 02:09:28;;;;;;;;;;;;;;;8.89;65.03;97377.44;4893483;29;19954;-72
2020/12/04 02:11:55;;;;;;;;;;;;;;;8.84;67.33;97396.97;4876490;29;19923;-69
2020/12/04 02:14:22;;;;;;;;;;;;;;;8.80;67.25;97396.19;4877532;29;19924;-70
2020/12/04 02:16:48;;;;;;;;;;;;;;;8.45;67.87;97409.66;4892290;29;19923;-69
2020/12/04 02:19:15;;;;;;;;;;;;;;;8.71;67.57;97409.44;4877999;29;19931;-69
2020/12/04 02:21:42;;;;;;;;;;;;;;;8.74;68.12;97414.16;4897532;29;19924;-71
2020/12/04 02:24:08;;;;;;;;;;;;;;;8.85;66.91;97418.59;4899543;29;19923;-70
2020/12/04 02:26:35;;;;;;;;;;;;;;;8.85;68.15;97412.28;4899339;29;19927;-69
2020/12/04 02:29:03;;;;;;;;;;;;;;;8.62;66.47;97414.47;4899363;29;19927;-69
2020/12/04 02:31:31;;;;;;;;;;;;;;;8.32;68.26;97411.88;4882095;29;19950;-70
2020/12/04 02:33:58;;;;;;;;;;;;;;;8.65;68.44;97420.00;4880519;29;19923;-68
2020/12/04 02:36:24;;;;;;;;;;;;;;;8.63;69.42;97418.81;4881182;29;19924;-70
2020/12/04 02:38:51;;;;;;;;;;;;;;;8.09;68.24;97429.66;4881550;29;19923;-71
2020/12/04 02:41:17;;;;;;;;;;;;;;;8.39;71.58;97428.41;4896806;29;19930;-69
2020/12/04 02:43:44;;;;;;;;;;;;;;;8.58;70.09;97424.63;4900344;29;19930;-72
2020/12/04 02:46:11;;;;;;;;;;;;;;;8.45;69.81;97443.34;4913392;29;20291;-69
2020/12/04 02:48:37;;;;;;;;;;;;;;;8.36;70.82;97442.88;4868104;29;20173;-71
2020/12/04 02:51:06;;;;;;;;;;;;;;;8.24;69.76;97462.34;4898705;29;20291;-70
2020/12/04 02:53:32;;;;;;;;;;;;;;;8.22;69.16;97456.41;4898228;29;19931;-73
2020/12/04 02:55:59;;;;;;;;;;;;;;;8.19;68.72;97462.66;4898802;29;19930;-71
2020/12/04 02:58:26;;;;;;;;;;;;;;;8.24;69.57;97483.47;4879739;29;19924;-68
2020/12/04 03:00:52;;;;;;;;;;;;;;;8.46;70.12;97490.75;4895929;29;19923;-69
2020/12/04 03:03:19;;;;;;;;;;;;;;;8.35;69.83;97487.13;4881423;29;19939;-68
2020/12/04 03:05:46;;;;;;;;;;;;;;;8.48;69.71;97497.44;4881352;29;19923;-68
2020/12/04 03:08:12;;;;;;;;;;;;;;;8.35;70.06;97498.88;4880428;29;19930;-74
2020/12/04 03:10:39;;;;;;;;;;;;;;;8.37;68.89;97502.03;4899765;29;19935;-73
2020/12/04 03:13:05;;;;;;;;;;;;;;;8.28;68.55;97498.03;4867189;29;19950;-74
2020/12/04 03:15:33;;;;;;;;;;;;;;;8.26;69.37;97503.09;4899962;29;19928;-75
2020/12/04 03:17:59;;;;;;;;;;;;;;;8.21;71.13;97501.44;4898198;29;19924;-73
2020/12/04 03:20:26;;;;;;;;;;;;;;;8.20;71.10;97501.81;4900181;29;19923;-72
2020/12/04 03:22:52;;;;;;;;;;;;;;;8.12;71.19;97494.69;4899489;29;20394;-72
2020/12/04 03:25:19;;;;;;;;;;;;;;;8.14;71.74;97497.84;4899122;29;20375;-69
2020/12/04 03:27:46;;;;;;;;;;;;;;;8.24;70.65;97505.41;4899225;29;20399;-70
2020/12/04 03:30:12;;;;;;;;;;;;;;;8.35;70.48;97500.84;4880795;29;19924;-75
2020/12/04 03:32:39;;;;;;;;;;;;;;;8.10;70.61;97517.00;4863500;29;19924;-71
2020/12/04 03:35:06;;;;;;;;;;;;;;;7.90;70.79;97519.09;4880131;29;19924;-69
2020/12/04 03:37:33;;;;;;;;;;;;;;;8.14;71.58;97514.28;4889809;29;19935;-68
2020/12/04 03:39:59;;;;;;;;;;;;;;;7.98;71.50;97528.22;4881240;29;19927;-68
2020/12/04 03:42:26;;;;;;;;;;;;;;;7.93;71.17;97526.56;4897983;29;19931;-68
2020/12/04 03:44:52;;;;;;;;;;;;;;;7.88;72.15;97543.34;4898588;29;19927;-68
2020/12/04 03:47:19;;;;;;;;;;;;;;;7.82;71.76;97542.13;4889049;29;19924;-68
2020/12/04 03:49:46;;;;;;;;;;;;;;;8.01;70.63;97546.63;4863572;29;19924;-70
2020/12/04 03:52:13;;;;;;;;;;;;;;;8.11;70.90;97550.69;4879612;29;19924;-75
2020/12/04 03:54:39;;;;;;;;;;;;;;;7.75;70.94;97569.41;4862953;29;20114;-72
2020/12/04 03:57:06;;;;;;;;;;;;;;;7.78;71.50;97567.88;4885200;29;19924;-73
2020/12/04 03:59:32;;;;;;;;;;;;;;;7.89;72.58;97571.53;4898801;29;19927;-71
2020/12/04 04:01:59;;;;;;;;;;;;;;;7.82;70.77;97585.16;4899051;29;19924;-71
2020/12/04 04:04:25;;;;;;;;;;;;;;;7.70;71.20;97594.41;4898096;29;19930;-74
2020/12/04 04:06:53;;;;;;;;;;;;;;;7.49;71.74;97598.75;4892910;29;20407;-74
2020/12/04 04:09:19;;;;;;;;;;;;;;;7.37;71.39;97602.50;4879813;29;20299;-75
2020/12/04 04:11:46;;;;;;;;;;;;;;;7.49;73.03;97602.31;4879163;29;19924;-75
2020/12/04 04:14:13;;;;;;;;;;;;;;;7.42;72.02;97609.63;4879942;29;19931;-74
2020/12/04 04:16:39;;;;;;;;;;;;;;;7.56;72.25;97605.16;4882539;29;19923;-71
2020/12/04 04:19:06;;;;;;;;;;;;;;;7.51;72.93;97605.47;4897478;29;19931;-74
2020/12/04 04:21:39;;;;;;;;;;;;;;;7.28;72.88;97604.72;4897911;29;20434;-73
2020/12/04 04:24:06;;;;;;;;;;;;;;;7.32;74.54;97599.28;4897713;29;19923;-74
2020/12/04 04:26:33;;;;;;;;;;;;;;;7.49;73.51;97609.72;4878404;29;19928;-75
2020/12/04 04:28:59;;;;;;;;;;;;;;;7.59;71.88;97603.59;4862548;29;19927;-73
2020/12/04 04:31:26;;;;;;;;;;;;;;;7.40;72.43;97604.50;4879410;29;19974;-73
2020/12/04 04:33:53;;;;;;;;;;;;;;;7.41;73.48;97597.84;4879667;29;19946;-73
2020/12/04 04:36:19;;;;;;;;;;;;;;;7.38;73.42;97600.53;4891029;29;20277;-70
2020/12/04 04:38:46;;;;;;;;;;;;;;;7.46;75.06;97613.97;4896711;29;19923;-75
2020/12/04 04:41:13;;;;;;;;;;;;;;;7.32;73.15;97607.50;4895850;29;19930;-74
2020/12/04 04:43:40;;;;;;;;;;;;;;;7.36;73.47;97614.59;4865950;29;19934;-69
2020/12/04 04:46:20;;;;;;;;;;;;;;;7.47;72.52;97601.88;4879981;29;19923;-68
2020/12/04 04:48:55;;;;;;;;;;;;;;;7.41;73.55;97599.84;4896303;29;19923;-72
2020/12/04 04:51:22;;;;;;;;;;;;;;;7.36;73.01;97597.38;4896500;29;19931;-68
2020/12/04 04:53:56;;;;;;;;;;;;;;;7.25;72.51;97601.91;4895993;29;19923;-71
2020/12/04 04:56:23;;;;;;;;;;;;;;;7.30;73.22;97593.41;4881187;29;19931;-68
2020/12/04 04:58:49;;;;;;;;;;;;;;;7.27;72.62;97605.09;4897410;29;19924;-67
2020/12/04 05:01:16;;;;;;;;;;;;;;;7.42;71.59;97607.66;4897225;29;19923;-72
2020/12/04 05:03:58;;;;;;;;;;;;;;;7.53;71.13;97594.91;4879184;29;20376;-73
2020/12/04 05:06:31;;;;;;;;;;;;;;;7.50;71.92;97611.28;4895391;29;19931;-71
2020/12/04 05:08:58;;;;;;;;;;;;;;;7.53;71.51;97616.06;4880032;29;19923;-69
2020/12/04 05:11:25;;;;;;;;;;;;;;;7.61;70.51;97615.78;4865358;29;20391;-75
2020/12/04 05:13:53;;;;;;;;;;;;;;;7.49;70.70;97615.19;4898923;29;19930;-72
2020/12/04 05:16:29;;;;;;;;;;;;;;;7.61;70.70;97615.00;4899348;29;19934;-73
2020/12/04 05:18:56;;;;;;;;;;;;;;;7.66;70.31;97625.63;4899096;29;20510;-72
2020/12/04 05:21:26;;;;;;;;;;;;;;;7.66;70.55;97625.63;4898856;29;20319;-72
2020/12/04 05:23:53;;;;;;;;;;;;;;;7.68;70.70;97629.59;4897373;29;19923;-70
2020/12/04 05:26:33;;;;;;;;;;;;;;;7.69;70.22;97628.41;4880354;29;19959;-74
2020/12/04 05:29:00;;;;;;;;;;;;;;;7.55;69.94;97627.44;4897596;29;19923;-70
2020/12/04 05:31:31;;;;;;;;;;;;;;;7.52;70.45;97628.16;4880504;29;20026;-73
2020/12/04 05:33:57;;;;;;;;;;;;;;;7.47;70.44;97633.94;4915108;29;20287;-74
2020/12/04 05:36:25;;;;;;;;;;;;;;;7.54;70.99;97634.03;4915495;29;20368;-71
2020/12/04 05:38:52;;;;;;;;;;;;;;;7.69;70.50;97633.88;4898414;29;19923;-70
2020/12/04 05:41:18;;;;;;;;;;;;;;;7.60;69.15;97641.56;4899325;29;19930;-72
2020/12/04 05:43:45;;;;;;;;;;;;;;;7.62;69.41;97627.50;4880065;29;19923;-67
2020/12/04 05:46:21;;;;;;;;;;;;;;;7.58;70.03;97643.88;4896550;29;19924;-71
2020/12/04 05:48:57;;;;;;;;;;;;;;;7.86;71.05;97638.81;4895606;29;19933;-68
2020/12/04 05:51:25;;;;;;;;;;;;;;;7.69;68.76;97644.06;4896691;29;19930;-71
2020/12/04 05:53:53;;;;;;;;;;;;;;;7.87;70.75;97653.31;4909929;29;19939;-68
2020/12/04 05:56:20;;;;;;;;;;;;;;;7.58;69.07;97649.38;4909432;29;19923;-73
2020/12/04 05:58:47;;;;;;;;;;;;;;;7.44;68.29;97668.34;4918700;29;19930;-69
2020/12/04 06:01:17;;;;;;;;;;;;;;;7.78;69.90;97658.28;4918897;29;19930;-69
2020/12/04 06:03:50;;;;;;;;;;;;;;;7.68;66.69;97664.41;4902674;29;19946;-72
2020/12/04 06:06:24;;;;;;;;;;;;;;;7.66;65.85;97662.03;4880776;29;19930;-70
2020/12/04 06:08:51;;;;;;;;;;;;;;;7.82;68.03;97667.34;4882106;29;19928;-67
2020/12/04 06:11:19;;;;;;;;;;;;;;;7.88;65.37;97671.34;4865831;29;19949;-71
2020/12/04 06:13:45;;;;;;;;;;;;;;;7.76;65.56;97669.59;4896447;29;19931;-67
2020/12/04 06:16:13;;;;;;;;;;;;;;;7.71;66.22;97697.31;4901504;29;19931;-68
2020/12/04 06:18:40;;;;;;;;;;;;;;;7.59;67.81;97692.03;4900882;29;20287;-75
2020/12/04 06:21:07;;;;;;;;;;;;;;;7.69;69.76;97696.91;4900098;29;20295;-69
2020/12/04 06:23:34;;;;;;;;;;;;;;;7.68;67.04;97697.28;4886511;29;19933;-70
2020/12/04 06:26:03;;;;;;;;;;;;;;;7.64;66.90;97699.16;4864558;29;19935;-70
2020/12/04 06:28:33;;;;;;;;;;;;;;;7.84;67.55;97695.19;4881285;29;19927;-67
2020/12/04 06:31:00;;;;;;;;;;;;;;;7.70;66.66;97694.97;4864390;29;19924;-67
2020/12/04 06:33:30;;;;;;;;;;;;;;;7.48;65.42;97709.47;4876265;29;20295;-70
2020/12/04 06:35:57;;;;;;;;;;;;;;;7.54;66.92;97711.53;4899560;29;19930;-71
2020/12/04 06:38:33;;;;;;;;;;;;;;;7.73;65.94;97707.91;4887643;29;19924;-68
2020/12/04 06:41:29;;;;;;;;;;;;;;;7.82;66.63;97717.47;4898999;29;19923;-69
2020/12/04 06:44:15;;;;;;;;;;;;;;;7.71;65.67;97721.97;4841255;29;19924;-71
2020/12/04 06:46:55;;;;;;;;;;;;;;;7.85;64.48;97724.94;4823754;29;19924;-70
2020/12/04 06:51:58;;;;;;;;;;;;;;;8.13;64.37;97734.75;4811280;29;19932;-66
2020/12/04 06:54:26;;;;;;;;;;;;;;;7.95;64.84;97745.44;4823473;29;19931;-68
2020/12/04 06:56:53;;;;;;;;;;;;;;;8.29;62.10;97743.63;4824025;29;19932;-70
2020/12/04 06:59:20;;;;;;;;;;;;;;;8.04;63.30;97750.69;4821736;29;19948;-71
2020/12/04 07:01:47;;;;;;;;;;;;;;;7.92;63.72;97754.41;4818016;29;19932;-70
2020/12/04 07:04:15;;;;;;;;;;;;;;;7.75;63.63;97765.88;4828823;29;19974;-68
2020/12/04 07:06:41;;;;;;;;;;;;;;;7.75;64.04;97768.59;4820603;29;19924;-69
2020/12/04 07:09:08;;;;;;;;;;;;;;;7.87;63.91;97771.94;4821325;29;19932;-66
2020/12/04 07:11:35;;;;;;;;;;;;;;;7.74;64.00;97781.50;4820331;29;19932;-69
2020/12/04 07:14:01;;;;;;;;;;;;;;;7.88;64.01;97779.00;4823272;29;20034;-68
2020/12/04 07:16:28;;;;;;;;;;;;;;;7.96;63.74;97774.44;4822899;29;19925;-66
2020/12/04 07:18:54;;;;;;;;;;;;;;;7.86;63.84;97775.06;4822021;29;19925;-69
2020/12/04 07:21:21;;;;;;;;;;;;;;;7.82;63.81;97785.16;4873583;29;19927;-71
2020/12/04 07:23:48;;;;;;;;;;;;;;;7.81;64.44;97784.38;4885101;29;19927;-70
2020/12/04 07:26:16;;;;;;;;;;;;;;;7.69;64.08;97779.06;4848739;29;19931;-70
2020/12/04 07:28:45;;;;;;;;;;;;;;;7.69;64.05;97789.25;4863748;29;19930;-72
2020/12/04 07:31:19;;;;;;;;;;;;;;;7.73;63.95;97792.84;4885191;29;19923;-73
2020/12/04 07:33:49;;;;;;;;;;;;;;;7.65;63.91;97793.88;4880471;29;19930;-73
2020/12/04 07:36:16;;;;;;;;;;;;;;;8.05;63.09;97785.94;4898622;29;19923;-73
2020/12/04 07:38:52;;;;;;;;;;;;;;;7.83;63.60;97803.19;4883395;29;19928;-71
2020/12/04 07:41:26;;;;;;;;;;;;;;;8.03;63.20;97796.47;4883200;29;19939;-70
2020/12/04 07:44:05;;;;;;;;;;;;;;;7.76;63.82;97797.56;4889361;29;19930;-71
2020/12/04 07:46:33;;;;;;;;;;;;;;;7.47;63.41;97799.03;4887340;29;19923;-70
2020/12/04 07:49:00;;;;;;;;;;;;;;;7.65;62.85;97813.81;4891424;29;20184;-68
2020/12/04 07:51:27;;;;;;;;;;;;;;;7.60;62.84;97819.63;4880485;29;19924;-70
2020/12/04 07:53:54;;;;;;;;;;;;;;;7.55;62.85;97825.41;4892973;29;19930;-70
2020/12/04 07:56:23;;;;;;;;;;;;;;;7.55;63.05;97830.88;4898211;29;19930;-71
2020/12/04 07:58:50;;;;;;;;;;;;;;;7.49;64.04;97846.03;4872825;29;19923;-70
2020/12/04 08:01:17;;;;;;;;;;;;;;;7.62;64.49;97841.97;4892435;29;20389;-70
2020/12/04 08:03:47;;;;;;;;;;;;;;;7.70;63.88;97846.44;4889639;29;20299;-72
2020/12/04 08:06:13;;;;;;;;;;;;;;;7.61;64.55;97856.03;4898846;29;19923;-68
2020/12/04 08:08:40;;;;;;;;;;;;;;;7.66;63.36;97848.31;4895624;29;19977;-69
2020/12/04 08:11:08;;;;;;;;;;;;;;;7.51;62.87;97854.69;4895554;29;19923;-67
2020/12/04 08:13:38;;;;;;;;;;;;;;;7.47;64.61;97853.81;4892989;29;19940;-65
2020/12/04 08:16:08;;;;;;;;;;;;;;;7.41;65.24;97873.66;4868334;29;20312;-65
2020/12/04 08:18:35;;;;;;;;;;;;;;;7.44;63.45;97870.97;4890629;29;20376;-67
2020/12/04 08:21:06;;;;;;;;;;;;;;;7.49;63.94;97873.41;4872446;29;19927;-66
2020/12/04 08:23:33;;;;;;;;;;;;;;;7.54;65.44;97872.31;4890694;29;19923;-70
2020/12/04 08:25:59;;;;;;;;;;;;;;;7.55;66.47;97871.19;4897087;29;20371;-72
2020/12/04 08:28:28;;;;;;;;;;;;;;;7.83;65.02;97879.91;4897120;29;19923;-66
2020/12/04 08:30:54;;;;;;;;;;;;;;;7.57;63.17;97888.81;4897711;29;19934;-68
2020/12/04 08:33:21;;;;;;;;;;;;;;;7.40;63.83;97888.47;4886630;29;19927;-73
2020/12/04 08:35:49;;;;;;;;;;;;;;;7.60;65.33;97884.56;4893402;29;19924;-68
2020/12/04 08:38:16;;;;;;;;;;;;;;;7.61;63.54;97884.22;4889223;29;19931;-68
2020/12/04 08:40:47;;;;;;;;;;;;;;;7.51;63.22;97884.81;4896364;29;20295;-69
2020/12/04 08:43:14;;;;;;;;;;;;;;;7.58;62.92;97895.09;4892084;29;19951;-68
2020/12/04 08:45:44;;;;;;;;;;;;;;;7.78;66.03;97889.22;4879791;29;19935;-68
2020/12/04 08:48:11;;;;;;;;;;;;;;;7.79;63.64;97898.25;4872774;29;19923;-70
2020/12/04 08:50:48;;;;;;;;;;;;;;;7.87;65.25;97888.97;4891352;29;20264;-70
2020/12/04 08:53:16;;;;;;;;;;;;;;;7.75;61.18;97891.91;4898708;29;19924;-69
2020/12/04 08:55:46;;;;;;;;;;;;;;;7.93;62.69;97890.28;4880161;29;19924;-69
2020/12/04 08:58:14;;;;;;;;;;;;;;;7.57;61.95;97897.03;4885792;29;19924;-68
2020/12/04 09:00:42;;;;;;;;;;;;;;;7.91;61.15;97887.09;4892360;29;20157;-71
2020/12/04 09:03:09;;;;;;;;;;;;;;;7.76;62.75;97890.72;4892869;29;19924;-69
2020/12/04 09:05:36;;;;;;;;;;;;;;;7.99;63.35;97894.28;4874906;29;20368;-72
2020/12/04 09:08:02;;;;;;;;;;;;;;;7.95;62.32;97904.38;4893436;29;19927;-70
2020/12/04 09:10:29;;;;;;;;;;;;;;;7.93;62.22;97901.25;4901959;29;19923;-67
2020/12/04 09:12:56;;;;;;;;;;;;;;;8.07;63.17;97903.44;4895801;29;19949;-67
2020/12/04 09:15:23;;;;;;;;;;;;;;;7.79;61.32;97906.47;4888736;29;19924;-69
2020/12/04 09:17:50;;;;;;;;;;;;;;;8.09;62.68;97910.13;4894458;29;20153;-76
2020/12/04 09:20:16;;;;;;;;;;;;;;;7.82;61.04;97906.53;4894689;29;19924;-74
2020/12/04 09:22:44;;;;;;;;;;;;;;;7.62;61.57;97909.63;4903899;29;19931;-69
2020/12/04 09:25:12;;;;;;;;;;;;;;;7.70;64.07;97905.91;4896202;29;19931;-74
2020/12/04 09:27:39;;;;;;;;;;;;;;;7.80;62.85;97917.06;4857082;29;19923;-69
2020/12/04 09:30:06;;;;;;;;;;;;;;;7.93;63.53;97909.47;4896042;29;19928;-69
2020/12/04 09:32:33;;;;;;;;;;;;;;;7.80;62.12;97906.09;4899578;29;19923;-75
2020/12/04 09:35:00;;;;;;;;;;;;;;;7.85;63.31;97915.97;4899390;29;19923;-77
2020/12/04 09:37:33;;;;;;;;;;;;;;;7.89;61.16;97911.34;4889284;29;19923;-68
2020/12/04 09:40:02;;;;;;;;;;;;;;;7.94;61.75;97916.53;4865498;29;19923;-68
2020/12/04 09:42:29;;;;;;;;;;;;;;;7.85;62.11;97918.69;4888576;29;19927;-76
2020/12/04 09:44:58;;;;;;;;;;;;;;;7.91;61.24;97925.47;4875840;29;19927;-69
2020/12/04 09:47:25;;;;;;;;;;;;;;;7.77;61.03;97933.44;4889320;29;19924;-71
2020/12/04 09:49:52;;;;;;;;;;;;;;;7.70;61.43;97925.06;4900404;29;19923;-74
2020/12/04 09:52:19;;;;;;;;;;;;;;;7.62;61.14;97937.03;4895988;29;19923;-71
2020/12/04 09:54:47;;;;;;;;;;;;;;;7.79;60.82;97936.59;4914888;29;19924;-70
2020/12/04 09:57:14;;;;;;;;;;;;;;;7.77;61.04;97936.16;4891853;29;20303;-67
2020/12/04 09:59:49;;;;;;;;;;;;;;;7.97;61.29;97937.72;4897349;29;19946;-70
2020/12/04 10:02:16;;;;;;;;;;;;;;;7.80;60.28;97933.50;4897918;29;20359;-72
2020/12/04 10:04:44;;;;;;;;;;;;;;;7.81;61.15;97939.78;4902818;29;19926;-72
2020/12/04 10:07:11;;;;;;;;;;;;;;;7.86;61.53;97931.25;4916450;29;19938;-74
2020/12/04 10:09:38;;;;;;;;;;;;;;;7.84;61.85;97928.09;4916977;29;19938;-70
2020/12/04 10:12:05;;;;;;;;;;;;;;;8.12;60.89;97928.59;4900091;29;19923;-69
2020/12/04 10:14:33;;;;;;;;;;;;;;;7.79;60.28;97920.94;4917240;29;20150;-72
2020/12/04 10:17:01;;;;;;;;;;;;;;;7.69;60.52;97931.69;4883388;29;19942;-71
2020/12/04 10:19:27;;;;;;;;;;;;;;;7.89;64.06;97925.84;4917710;29;20382;-68
2020/12/04 10:21:54;;;;;;;;;;;;;;;7.86;62.86;97936.75;4900000;29;20263;-70
2020/12/04 10:24:23;;;;;;;;;;;;;;;8.05;61.41;97941.38;4917685;29;20398;-71
2020/12/04 10:26:53;;;;;;;;;;;;;;;7.82;61.64;97942.16;4915293;29;20529;-68
2020/12/04 10:29:20;;;;;;;;;;;;;;;7.86;61.63;97951.22;4900165;29;20371;-68
2020/12/04 10:31:47;;;;;;;;;;;;;;;8.04;60.52;97946.06;4915504;29;19927;-71
2020/12/04 10:34:14;;;;;;;;;;;;;;;8.06;62.79;97932.00;4916472;29;20355;-69
2020/12/04 10:36:40;;;;;;;;;;;;;;;8.22;61.99;97936.22;4915617;29;19923;-70
2020/12/04 10:39:08;;;;;;;;;;;;;;;8.22;59.78;97941.69;4900470;29;19927;-72
2020/12/04 10:41:37;;;;;;;;;;;;;;;7.95;60.39;97938.06;4917329;29;19930;-73
2020/12/04 10:44:04;;;;;;;;;;;;;;;8.16;59.98;97931.41;4915362;29;19923;-74
2020/12/04 10:46:32;;;;;;;;;;;;;;;8.27;61.87;97930.47;4913849;29;19931;-70
2020/12/04 10:48:59;;;;;;;;;;;;;;;8.10;60.60;97921.88;4915500;29;19923;-70
2020/12/04 10:51:32;;;;;;;;;;;;;;;8.22;60.03;97929.94;4900822;29;19934;-76
2020/12/04 10:54:02;;;;;;;;;;;;;;;8.22;62.20;97928.00;4915904;29;20306;-73
2020/12/04 10:56:31;;;;;;;;;;;;;;;8.00;61.47;97926.81;4898618;29;19927;-73
2020/12/04 10:58:58;;;;;;;;;;;;;;;8.08;60.89;97925.00;4913390;29;19927;-74
2020/12/04 11:01:43;;;;;;;;;;;;;;;8.15;60.46;97936.09;4916028;29;19923;-74
2020/12/04 11:06:56;;;;;;;;;;;;;;;8.23;61.47;97928.78;4894572;29;19927;-71
2020/12/04 11:09:23;;;;;;;;;;;;;;;7.99;60.96;97927.19;4914851;29;19954;-69
2020/12/04 11:11:49;;;;;;;;;;;;;;;7.76;61.14;97934.56;4914723;29;19923;-70
2020/12/04 11:14:16;;;;;;;;;;;;;;;7.90;61.46;97923.88;4882283;29;19930;-74
2020/12/04 11:16:43;;;;;;;;;;;;;;;7.92;61.60;97930.59;4914156;29;20299;-70
2020/12/04 11:19:12;;;;;;;;;;;;;;;8.09;64.05;97923.81;4899162;29;19931;-69
2020/12/04 11:21:39;;;;;;;;;;;;;;;8.33;60.28;97926.25;4914624;29;19927;-68
2020/12/04 11:24:06;;;;;;;;;;;;;;;8.52;58.87;97917.97;4899065;29;19930;-71
2020/12/04 11:26:33;;;;;;;;;;;;;;;8.32;59.70;97921.91;4898191;29;19930;-69
2020/12/04 11:29:00;;;;;;;;;;;;;;;8.16;59.13;97926.69;4913294;29;20374;-70
2020/12/04 11:31:29;;;;;;;;;;;;;;;8.06;58.94;97930.06;4914584;29;19923;-69
2020/12/04 11:33:56;;;;;;;;;;;;;;;8.41;58.35;97927.16;4914406;29;19966;-67
2020/12/04 11:36:25;;;;;;;;;;;;;;;8.34;58.16;97929.78;4916063;29;19930;-67
2020/12/04 11:38:52;;;;;;;;;;;;;;;8.36;59.48;97921.97;4915366;29;19927;-71
2020/12/04 11:41:18;;;;;;;;;;;;;;;8.49;60.54;97929.66;4914644;29;19923;-73
2020/12/04 11:43:45;;;;;;;;;;;;;;;8.45;60.00;97928.00;4894924;29;19930;-70
2020/12/04 11:46:11;;;;;;;;;;;;;;;8.55;59.60;97930.94;4914785;29;19997;-70
2020/12/04 11:48:38;;;;;;;;;;;;;;;8.62;58.07;97917.31;4912592;29;19930;-66
2020/12/04 11:51:05;;;;;;;;;;;;;;;8.53;59.74;97913.25;4898044;29;19923;-73
2020/12/04 11:53:32;;;;;;;;;;;;;;;8.44;60.68;97918.97;4898555;29;19931;-70
2020/12/04 11:55:58;;;;;;;;;;;;;;;8.55;58.25;97917.22;4913451;29;19930;-75
2020/12/04 11:58:25;;;;;;;;;;;;;;;8.62;57.89;97911.84;4914225;29;19927;-76
2020/12/04 12:00:54;;;;;;;;;;;;;;;8.54;57.80;97914.84;4914844;29;20386;-77
2020/12/04 12:03:21;;;;;;;;;;;;;;;8.82;59.17;97921.53;4914542;29;19931;-73
2020/12/04 12:05:48;;;;;;;;;;;;;;;8.82;59.32;97927.03;4911753;29;20295;-71
2020/12/04 12:08:14;;;;;;;;;;;;;;;8.62;58.36;97927.50;4915377;29;19930;-67
2020/12/04 12:10:41;;;;;;;;;;;;;;;8.89;59.33;97932.63;4894411;29;19923;-63
2020/12/04 12:13:07;;;;;;;;;;;;;;;9.21;58.97;97930.34;4911244;29;19927;-62
2020/12/04 12:15:34;;;;;;;;;;;;;;;9.01;56.66;97934.38;4912288;29;19923;-70
2020/12/04 12:18:01;;;;;;;;;;;;;;;9.01;58.04;97940.66;4913977;29;20366;-67
2020/12/04 12:20:28;;;;;;;;;;;;;;;8.70;58.17;97946.44;4913801;29;20395;-68
2020/12/04 12:22:54;;;;;;;;;;;;;;;8.81;57.82;97952.91;4914099;29;19923;-69
2020/12/04 12:25:21;;;;;;;;;;;;;;;8.90;56.48;97942.47;4913304;29;20418;-67
2020/12/04 12:28:03;;;;;;;;;;;;;;;8.84;56.38;97946.66;4914762;29;19927;-69
2020/12/04 12:30:30;;;;;;;;;;;;;;;8.79;56.51;97944.25;4913514;29;19930;-69
2020/12/04 12:32:57;;;;;;;;;;;;;;;8.76;56.91;97955.16;4897717;29;19927;-69
2020/12/04 12:35:24;;;;;;;;;;;;;;;8.78;56.93;97956.41;4914271;29;19927;-73
2020/12/04 12:37:52;;;;;;;;;;;;;;;8.98;56.57;97960.59;4896024;29;20303;-69
2020/12/04 12:40:19;;;;;;;;;;;;;;;9.33;55.94;97963.06;4913313;29;19923;-75
2020/12/04 12:42:46;;;;;;;;;;;;;;;9.08;56.51;97959.97;4913950;29;19923;-74
2020/12/04 12:45:14;;;;;;;;;;;;;;;9.19;56.63;97964.84;4913376;29;19931;-75
2020/12/04 12:47:44;;;;;;;;;;;;;;;9.13;56.26;97969.06;4913748;29;19927;-74
2020/12/04 12:50:10;;;;;;;;;;;;;;;9.09;55.77;97978.03;4897800;29;19923;-76
2020/12/04 12:52:40;;;;;;;;;;;;;;;9.18;56.08;97977.78;4914286;29;19997;-77
2020/12/04 12:55:08;;;;;;;;;;;;;;;9.26;55.28;97989.66;4911600;29;19938;-76
2020/12/04 12:57:35;;;;;;;;;;;;;;;9.08;55.66;97987.44;4896924;29;19936;-75
2020/12/04 13:00:03;;;;;;;;;;;;;;;9.25;55.64;97985.31;4912814;29;19923;-76
2020/12/04 13:02:30;;;;;;;;;;;;;;;9.35;55.61;97984.66;4912968;29;19923;-69
2020/12/04 13:04:56;;;;;;;;;;;;;;;9.13;55.13;97988.28;4913544;29;19934;-70
2020/12/04 13:07:23;;;;;;;;;;;;;;;9.53;54.45;97989.25;4912583;29;19923;-72